sensor_id;sensor_type;location;lat;lon;timestamp;temperature;humidity
41953;DHT22;63613;28.200;112.870;2023-01-09T00:00:56;17.30;68.50
41953;DHT22;63613;28.200;112.870;2023-01-09T00:03:22;17.20;68.40
41953;DHT22;63613;28.200;112.870;2023-01-09T00:05:49;17.30;68.40
41953;DHT22;63613;28.200;112.870;2023-01-09T00:08:16;17.30;68.30
41953;DHT22;63613;28.200;112.870;2023-01-09T00:10:44;17.30;68.30
41953;DHT22;63613;28.200;112.870;2023-01-09T00:13:12;17.30;68.40
41953;DHT22;63613;28.200;112.870;2023-01-09T00:15:40;17.30;68.40
41953;DHT22;63613;28.200;112.870;2023-01-09T00:18:07;17.30;68.40
41953;DHT22;63613;28.200;112.870;2023-01-09T00:20:34;17.30;68.40
41953;DHT22;63613;28.200;112.870;2023-01-09T00:23:02;17.30;68.40
41953;DHT22;63613;28.200;112.870;2023-01-09T00:25:29;17.30;68.50
41953;DHT22;63613;28.200;112.870;2023-01-09T00:27:56;17.30;68.50
41953;DHT22;63613;28.200;112.870;2023-01-09T00:30:22;17.30;68.40
41953;DHT22;63613;28.200;112.870;2023-01-09T00:32:54;17.30;68.50
41953;DHT22;63613;28.200;112.870;2023-01-09T00:35:22;17.30;68.40
41953;DHT22;63613;28.200;112.870;2023-01-09T00:37:50;17.30;68.50
41953;DHT22;63613;28.200;112.870;2023-01-09T00:40:17;17.30;68.50
41953;DHT22;63613;28.200;112.870;2023-01-09T00:42:51;17.30;68.50
41953;DHT22;63613;28.200;112.870;2023-01-09T00:45:23;17.30;68.60
41953;DHT22;63613;28.200;112.870;2023-01-09T00:48:00;17.30;68.60
41953;DHT22;63613;28.200;112.870;2023-01-09T00:50:30;17.30;68.50
41953;DHT22;63613;28.200;112.870;2023-01-09T00:53:02;17.30;68.60
41953;DHT22;63613;28.200;112.870;2023-01-09T00:55:33;17.30;68.60
41953;DHT22;63613;28.200;112.870;2023-01-09T00:58:00;17.30;68.60
41953;DHT22;63613;28.200;112.870;2023-01-09T01:00:34;17.30;68.60
41953;DHT22;63613;28.200;112.870;2023-01-09T01:03:01;17.30;68.50
41953;DHT22;63613;28.200;112.870;2023-01-09T01:05:30;17.30;68.60
41953;DHT22;63613;28.200;112.870;2023-01-09T01:08:16;17.30;68.60
41953;DHT22;63613;28.200;112.870;2023-01-09T01:10:44;17.30;68.60
41953;DHT22;63613;28.200;112.870;2023-01-09T01:13:12;17.30;68.60
41953;DHT22;63613;28.200;112.870;2023-01-09T01:15:41;17.30;68.60
41953;DHT22;63613;28.200;112.870;2023-01-09T01:18:09;17.30;68.60
41953;DHT22;63613;28.200;112.870;2023-01-09T01:20:40;17.30;68.60
41953;DHT22;63613;28.200;112.870;2023-01-09T01:23:29;17.30;68.50
41953;DHT22;63613;28.200;112.870;2023-01-09T01:25:56;17.30;68.60
41953;DHT22;63613;28.200;112.870;2023-01-09T01:28:23;17.30;68.60
41953;DHT22;63613;28.200;112.870;2023-01-09T01:30:50;17.30;68.60
41953;DHT22;63613;28.200;112.870;2023-01-09T01:33:18;17.40;68.60
41953;DHT22;63613;28.200;112.870;2023-01-09T01:35:45;17.40;68.60
41953;DHT22;63613;28.200;112.870;2023-01-09T01:38:11;17.30;68.50
41953;DHT22;63613;28.200;112.870;2023-01-09T01:40:40;17.30;68.50
41953;DHT22;63613;28.200;112.870;2023-01-09T01:43:11;17.30;68.50
41953;DHT22;63613;28.200;112.870;2023-01-09T01:45:38;17.30;68.60
41953;DHT22;63613;28.200;112.870;2023-01-09T01:48:22;17.30;68.50
41953;DHT22;63613;28.200;112.870;2023-01-09T01:51:04;17.30;68.50
41953;DHT22;63613;28.200;112.870;2023-01-09T01:53:40;17.30;68.60
41953;DHT22;63613;28.200;112.870;2023-01-09T02:01:39;17.30;68.70
41953;DHT22;63613;28.200;112.870;2023-01-09T02:04:09;17.30;68.60
41953;DHT22;63613;28.200;112.870;2023-01-09T02:06:40;17.30;68.60
41953;DHT22;63613;28.200;112.870;2023-01-09T02:09:10;17.30;68.60
41953;DHT22;63613;28.200;112.870;2023-01-09T02:11:48;17.30;68.70
41953;DHT22;63613;28.200;112.870;2023-01-09T02:14:35;17.30;68.70
41953;DHT22;63613;28.200;112.870;2023-01-09T02:17:36;17.30;68.80
41953;DHT22;63613;28.200;112.870;2023-01-09T02:35:01;17.30;68.70
41953;DHT22;63613;28.200;112.870;2023-01-09T02:37:15;17.30;68.70
41953;DHT22;63613;28.200;112.870;2023-01-09T02:42:37;17.30;68.80
41953;DHT22;63613;28.200;112.870;2023-01-09T02:45:06;17.30;68.70
41953;DHT22;63613;28.200;112.870;2023-01-09T02:47:44;17.30;68.70
41953;DHT22;63613;28.200;112.870;2023-01-09T02:50:49;17.30;68.80
41953;DHT22;63613;28.200;112.870;2023-01-09T02:56:18;17.30;69.10
41953;DHT22;63613;28.200;112.870;2023-01-09T02:59:26;17.30;69.10
41953;DHT22;63613;28.200;112.870;2023-01-09T03:02:40;17.30;69.00
41953;DHT22;63613;28.200;112.870;2023-01-09T03:05:31;17.30;68.90
41953;DHT22;63613;28.200;112.870;2023-01-09T03:08:04;17.30;68.90
41953;DHT22;63613;28.200;112.870;2023-01-09T03:13:30;17.30;68.80
41953;DHT22;63613;28.200;112.870;2023-01-09T03:16:01;17.30;68.80
41953;DHT22;63613;28.200;112.870;2023-01-09T03:18:32;17.30;68.80
41953;DHT22;63613;28.200;112.870;2023-01-09T03:21:01;17.30;68.80
41953;DHT22;63613;28.200;112.870;2023-01-09T03:23:56;17.30;68.70
41953;DHT22;63613;28.200;112.870;2023-01-09T03:26:25;17.30;68.70
41953;DHT22;63613;28.200;112.870;2023-01-09T03:28:56;17.30;68.70
41953;DHT22;63613;28.200;112.870;2023-01-09T03:31:24;17.30;68.70
41953;DHT22;63613;28.200;112.870;2023-01-09T03:33:52;17.30;68.70
41953;DHT22;63613;28.200;112.870;2023-01-09T03:36:22;17.30;68.70
41953;DHT22;63613;28.200;112.870;2023-01-09T03:38:49;17.30;68.70
41953;DHT22;63613;28.200;112.870;2023-01-09T03:41:17;17.40;68.60
41953;DHT22;63613;28.200;112.870;2023-01-09T03:43:46;17.30;68.60
41953;DHT22;63613;28.200;112.870;2023-01-09T03:46:17;17.40;68.60
41953;DHT22;63613;28.200;112.870;2023-01-09T03:48:44;17.40;68.60
41953;DHT22;63613;28.200;112.870;2023-01-09T03:51:14;17.40;68.70
41953;DHT22;63613;28.200;112.870;2023-01-09T03:53:42;17.40;68.60
41953;DHT22;63613;28.200;112.870;2023-01-09T03:56:29;17.30;68.70
41953;DHT22;63613;28.200;112.870;2023-01-09T03:58:56;17.40;68.60
41953;DHT22;63613;28.200;112.870;2023-01-09T04:01:23;17.40;68.70
41953;DHT22;63613;28.200;112.870;2023-01-09T04:03:50;17.40;68.70
41953;DHT22;63613;28.200;112.870;2023-01-09T04:06:20;17.40;68.80
41953;DHT22;63613;28.200;112.870;2023-01-09T04:08:46;17.40;68.80
41953;DHT22;63613;28.200;112.870;2023-01-09T04:11:13;17.40;68.80
41953;DHT22;63613;28.200;112.870;2023-01-09T04:13:42;17.40;68.80
41953;DHT22;63613;28.200;112.870;2023-01-09T04:16:10;17.30;68.70
41953;DHT22;63613;28.200;112.870;2023-01-09T04:18:40;17.40;68.80
41953;DHT22;63613;28.200;112.870;2023-01-09T04:21:29;17.40;68.90
41953;DHT22;63613;28.200;112.870;2023-01-09T04:23:56;17.40;69.00
41953;DHT22;63613;28.200;112.870;2023-01-09T04:26:25;17.40;69.00
41953;DHT22;63613;28.200;112.870;2023-01-09T04:28:51;17.40;68.90
41953;DHT22;63613;28.200;112.870;2023-01-09T04:31:21;17.40;68.90
41953;DHT22;63613;28.200;112.870;2023-01-09T04:33:47;17.40;69.30
41953;DHT22;63613;28.200;112.870;2023-01-09T04:36:16;17.40;70.90
41953;DHT22;63613;28.200;112.870;2023-01-09T04:38:43;17.40;71.00
41953;DHT22;63613;28.200;112.870;2023-01-09T04:41:11;17.40;70.90
41953;DHT22;63613;28.200;112.870;2023-01-09T04:43:58;17.40;70.80
41953;DHT22;63613;28.200;112.870;2023-01-09T04:46:46;17.40;70.90
41953;DHT22;63613;28.200;112.870;2023-01-09T04:49:14;17.40;71.00
41953;DHT22;63613;28.200;112.870;2023-01-09T04:51:43;17.40;71.10
41953;DHT22;63613;28.200;112.870;2023-01-09T04:54:12;17.50;71.10
41953;DHT22;63613;28.200;112.870;2023-01-09T04:56:45;17.40;71.10
41953;DHT22;63613;28.200;112.870;2023-01-09T04:59:12;17.50;71.20
41953;DHT22;63613;28.200;112.870;2023-01-09T05:01:39;17.40;71.30
41953;DHT22;63613;28.200;112.870;2023-01-09T05:04:06;17.40;71.40
41953;DHT22;63613;28.200;112.870;2023-01-09T05:06:36;17.40;71.50
41953;DHT22;63613;28.200;112.870;2023-01-09T05:09:06;17.40;71.80
41953;DHT22;63613;28.200;112.870;2023-01-09T05:11:33;17.50;71.70
41953;DHT22;63613;28.200;112.870;2023-01-09T05:14:01;17.50;72.10
41953;DHT22;63613;28.200;112.870;2023-01-09T05:16:32;17.60;72.70
41953;DHT22;63613;28.200;112.870;2023-01-09T05:18:59;17.60;73.60
41953;DHT22;63613;28.200;112.870;2023-01-09T05:21:48;17.60;74.40
41953;DHT22;63613;28.200;112.870;2023-01-09T05:24:15;17.70;75.20
41953;DHT22;63613;28.200;112.870;2023-01-09T05:26:41;17.80;76.60
41953;DHT22;63613;28.200;112.870;2023-01-09T05:29:10;17.80;76.60
41953;DHT22;63613;28.200;112.870;2023-01-09T05:31:37;17.80;77.30
41953;DHT22;63613;28.200;112.870;2023-01-09T05:34:06;17.80;77.50
41953;DHT22;63613;28.200;112.870;2023-01-09T05:36:35;17.80;78.50
41953;DHT22;63613;28.200;112.870;2023-01-09T05:39:04;17.90;78.70
41953;DHT22;63613;28.200;112.870;2023-01-09T05:41:35;18.00;78.30
41953;DHT22;63613;28.200;112.870;2023-01-09T05:44:05;18.20;77.20
41953;DHT22;63613;28.200;112.870;2023-01-09T05:46:32;18.40;75.50
41953;DHT22;63613;28.200;112.870;2023-01-09T05:48:59;18.40;73.20
41953;DHT22;63613;28.200;112.870;2023-01-09T05:51:46;18.40;70.80
41953;DHT22;63613;28.200;112.870;2023-01-09T05:54:13;18.50;70.10
41953;DHT22;63613;28.200;112.870;2023-01-09T05:56:40;18.80;71.00
41953;DHT22;63613;28.200;112.870;2023-01-09T05:59:12;18.80;69.40
41953;DHT22;63613;28.200;112.870;2023-01-09T06:01:44;18.80;69.30
41953;DHT22;63613;28.200;112.870;2023-01-09T06:04:10;18.90;70.10
41953;DHT22;63613;28.200;112.870;2023-01-09T06:06:37;19.10;69.40
41953;DHT22;63613;28.200;112.870;2023-01-09T06:09:08;19.20;68.90
41953;DHT22;63613;28.200;112.870;2023-01-09T06:11:58;19.30;67.80
41953;DHT22;63613;28.200;112.870;2023-01-09T06:14:45;19.30;68.20
41953;DHT22;63613;28.200;112.870;2023-01-09T06:17:12;19.50;67.80
41953;DHT22;63613;28.200;112.870;2023-01-09T06:19:39;19.60;67.40
41953;DHT22;63613;28.200;112.870;2023-01-09T06:22:06;19.90;66.50
41953;DHT22;63613;28.200;112.870;2023-01-09T06:24:34;20.00;65.80
41953;DHT22;63613;28.200;112.870;2023-01-09T06:27:05;20.30;64.60
41953;DHT22;63613;28.200;112.870;2023-01-09T06:29:37;20.60;63.40
41953;DHT22;63613;28.200;112.870;2023-01-09T06:32:04;20.80;61.60
41953;DHT22;63613;28.200;112.870;2023-01-09T06:34:32;21.20;61.00
41953;DHT22;63613;28.200;112.870;2023-01-09T06:36:59;21.60;60.10
41953;DHT22;63613;28.200;112.870;2023-01-09T06:39:45;21.90;58.90
41953;DHT22;63613;28.200;112.870;2023-01-09T06:42:12;22.20;57.80
41953;DHT22;63613;28.200;112.870;2023-01-09T06:44:42;22.50;56.60
41953;DHT22;63613;28.200;112.870;2023-01-09T06:47:12;22.60;55.40
41953;DHT22;63613;28.200;112.870;2023-01-09T06:49:39;22.50;54.30
41953;DHT22;63613;28.200;112.870;2023-01-09T06:52:07;22.50;54.90
41953;DHT22;63613;28.200;112.870;2023-01-09T06:54:34;22.50;54.20
41953;DHT22;63613;28.200;112.870;2023-01-09T06:57:09;21.70;57.00
41953;DHT22;63613;28.200;112.870;2023-01-09T06:59:42;20.90;56.60
41953;DHT22;63613;28.200;112.870;2023-01-09T07:02:18;20.60;58.60
41953;DHT22;63613;28.200;112.870;2023-01-09T07:04:46;20.40;58.20
41953;DHT22;63613;28.200;112.870;2023-01-09T07:07:15;20.20;59.00
41953;DHT22;63613;28.200;112.870;2023-01-09T07:09:49;20.20;60.50
41953;DHT22;63613;28.200;112.870;2023-01-09T07:12:37;20.10;60.00
41953;DHT22;63613;28.200;112.870;2023-01-09T07:15:06;20.00;60.90
41953;DHT22;63613;28.200;112.870;2023-01-09T07:17:33;19.90;59.70
41953;DHT22;63613;28.200;112.870;2023-01-09T07:20:06;19.60;59.70
41953;DHT22;63613;28.200;112.870;2023-01-09T07:22:35;19.60;60.50
41953;DHT22;63613;28.200;112.870;2023-01-09T07:25:02;19.60;60.20
41953;DHT22;63613;28.200;112.870;2023-01-09T07:27:30;19.60;59.50
41953;DHT22;63613;28.200;112.870;2023-01-09T07:29:57;19.60;59.70
41953;DHT22;63613;28.200;112.870;2023-01-09T07:32:24;19.50;60.30
41953;DHT22;63613;28.200;112.870;2023-01-09T07:34:50;19.40;59.60
41953;DHT22;63613;28.200;112.870;2023-01-09T07:37:23;19.50;60.90
41953;DHT22;63613;28.200;112.870;2023-01-09T07:39:50;19.60;61.50
41953;DHT22;63613;28.200;112.870;2023-01-09T07:42:17;19.30;60.00
41953;DHT22;63613;28.200;112.870;2023-01-09T07:44:44;19.00;59.50
41953;DHT22;63613;28.200;112.870;2023-01-09T07:47:14;19.10;60.70
41953;DHT22;63613;28.200;112.870;2023-01-09T07:49:42;19.00;60.10
41953;DHT22;63613;28.200;112.870;2023-01-09T07:52:17;19.20;61.20
41953;DHT22;63613;28.200;112.870;2023-01-09T07:54:46;19.20;59.60
41953;DHT22;63613;28.200;112.870;2023-01-09T07:57:12;19.20;59.50
41953;DHT22;63613;28.200;112.870;2023-01-09T07:59:44;19.10;59.10
41953;DHT22;63613;28.200;112.870;2023-01-09T08:02:11;19.00;59.40
41953;DHT22;63613;28.200;112.870;2023-01-09T08:04:39;18.80;59.90
41953;DHT22;63613;28.200;112.870;2023-01-09T08:07:07;18.80;60.10
41953;DHT22;63613;28.200;112.870;2023-01-09T08:09:36;19.00;60.20
41953;DHT22;63613;28.200;112.870;2023-01-09T08:12:04;18.90;60.20
41953;DHT22;63613;28.200;112.870;2023-01-09T08:14:31;18.90;61.00
41953;DHT22;63613;28.200;112.870;2023-01-09T08:16:58;18.80;59.70
41953;DHT22;63613;28.200;112.870;2023-01-09T08:19:28;18.70;59.80
41953;DHT22;63613;28.200;112.870;2023-01-09T08:21:55;19.20;59.40
41953;DHT22;63613;28.200;112.870;2023-01-09T08:24:22;21.20;53.60
41953;DHT22;63613;28.200;112.870;2023-01-09T08:26:49;22.30;50.10
41953;DHT22;63613;28.200;112.870;2023-01-09T08:29:39;23.00;48.20
41953;DHT22;63613;28.200;112.870;2023-01-09T08:32:08;23.50;46.80
41953;DHT22;63613;28.200;112.870;2023-01-09T08:34:56;23.80;46.60
41953;DHT22;63613;28.200;112.870;2023-01-09T08:37:24;23.80;46.90
41953;DHT22;63613;28.200;112.870;2023-01-09T08:39:51;22.80;49.20
41953;DHT22;63613;28.200;112.870;2023-01-09T08:42:19;21.80;51.90
41953;DHT22;63613;28.200;112.870;2023-01-09T08:45:24;21.40;52.30
41953;DHT22;63613;28.200;112.870;2023-01-09T08:48:09;21.30;53.90
41953;DHT22;63613;28.200;112.870;2023-01-09T08:50:59;21.20;52.80
41953;DHT22;63613;28.200;112.870;2023-01-09T08:53:27;21.00;53.50
41953;DHT22;63613;28.200;112.870;2023-01-09T08:55:54;20.80;53.90
41953;DHT22;63613;28.200;112.870;2023-01-09T08:58:21;20.60;55.20
41953;DHT22;63613;28.200;112.870;2023-01-09T09:00:48;20.30;55.80
41953;DHT22;63613;28.200;112.870;2023-01-09T09:03:35;20.00;56.80
41953;DHT22;63613;28.200;112.870;2023-01-09T09:06:02;19.80;56.70
41953;DHT22;63613;28.200;112.870;2023-01-09T09:11:16;19.60;57.90
41953;DHT22;63613;28.200;112.870;2023-01-09T09:13:44;19.40;56.70
41953;DHT22;63613;28.200;112.870;2023-01-09T09:16:16;19.20;57.70
41953;DHT22;63613;28.200;112.870;2023-01-09T09:18:43;19.20;57.90
41953;DHT22;63613;28.200;112.870;2023-01-09T09:21:11;19.10;58.60
41953;DHT22;63613;28.200;112.870;2023-01-09T09:23:38;19.00;58.40
41953;DHT22;63613;28.200;112.870;2023-01-09T09:26:05;18.90;58.50
41953;DHT22;63613;28.200;112.870;2023-01-09T09:28:33;18.80;58.90
41953;DHT22;63613;28.200;112.870;2023-01-09T09:31:04;18.70;60.20
41953;DHT22;63613;28.200;112.870;2023-01-09T09:33:31;18.60;60.20
41953;DHT22;63613;28.200;112.870;2023-01-09T09:35:59;18.60;60.80
41953;DHT22;63613;28.200;112.870;2023-01-09T09:38:28;18.60;60.50
41953;DHT22;63613;28.200;112.870;2023-01-09T09:43:39;18.40;61.20
41953;DHT22;63613;28.200;112.870;2023-01-09T09:49:33;18.30;63.00
41953;DHT22;63613;28.200;112.870;2023-01-09T09:52:29;18.30;63.50
41953;DHT22;63613;28.200;112.870;2023-01-09T09:55:14;18.20;63.80
41953;DHT22;63613;28.200;112.870;2023-01-09T09:57:48;18.10;64.40
41953;DHT22;63613;28.200;112.870;2023-01-09T10:00:31;18.10;63.70
41953;DHT22;63613;28.200;112.870;2023-01-09T10:03:04;18.20;64.20
41953;DHT22;63613;28.200;112.870;2023-01-09T10:05:44;18.00;63.90
41953;DHT22;63613;28.200;112.870;2023-01-09T10:14:22;18.00;63.00
41953;DHT22;63613;28.200;112.870;2023-01-09T10:22:14;18.10;64.10
41953;DHT22;63613;28.200;112.870;2023-01-09T10:38:29;18.30;63.10
41953;DHT22;63613;28.200;112.870;2023-01-09T10:44:58;18.30;62.80
41953;DHT22;63613;28.200;112.870;2023-01-09T10:46:57;18.30;62.70
41953;DHT22;63613;28.200;112.870;2023-01-09T10:49:25;18.30;62.70
41953;DHT22;63613;28.200;112.870;2023-01-09T10:52:17;18.30;62.50
41953;DHT22;63613;28.200;112.870;2023-01-09T10:55:00;18.30;62.70
41953;DHT22;63613;28.200;112.870;2023-01-09T10:57:48;18.30;62.80
41953;DHT22;63613;28.200;112.870;2023-01-09T11:00:21;18.20;63.00
41953;DHT22;63613;28.200;112.870;2023-01-09T11:02:49;18.20;63.00
41953;DHT22;63613;28.200;112.870;2023-01-09T11:05:24;18.20;63.20
41953;DHT22;63613;28.200;112.870;2023-01-09T11:08:20;18.20;63.30
41953;DHT22;63613;28.200;112.870;2023-01-09T11:23:55;18.10;63.70
41953;DHT22;63613;28.200;112.870;2023-01-09T11:26:42;18.10;63.70
41953;DHT22;63613;28.200;112.870;2023-01-09T11:29:20;18.10;63.70
41953;DHT22;63613;28.200;112.870;2023-01-09T11:31:53;18.10;63.80
41953;DHT22;63613;28.200;112.870;2023-01-09T11:34:26;18.00;63.80
41953;DHT22;63613;28.200;112.870;2023-01-09T11:37:11;18.10;65.30
41953;DHT22;63613;28.200;112.870;2023-01-09T11:39:45;18.10;66.70
41953;DHT22;63613;28.200;112.870;2023-01-09T11:42:27;18.10;67.30
41953;DHT22;63613;28.200;112.870;2023-01-09T11:45:22;18.10;67.10
41953;DHT22;63613;28.200;112.870;2023-01-09T11:47:50;18.10;67.80
41953;DHT22;63613;28.200;112.870;2023-01-09T11:50:23;18.00;68.40
41953;DHT22;63613;28.200;112.870;2023-01-09T11:55:48;18.10;71.30
41953;DHT22;63613;28.200;112.870;2023-01-09T11:58:19;18.10;73.50
41953;DHT22;63613;28.200;112.870;2023-01-09T12:03:56;18.00;74.90
41953;DHT22;63613;28.200;112.870;2023-01-09T12:09:27;17.90;76.00
41953;DHT22;63613;28.200;112.870;2023-01-09T12:21:13;17.90;77.60
41953;DHT22;63613;28.200;112.870;2023-01-09T12:26:45;17.90;77.90
41953;DHT22;63613;28.200;112.870;2023-01-09T12:39:32;17.80;79.30
41953;DHT22;63613;28.200;112.870;2023-01-09T12:44:54;17.90;79.60
41953;DHT22;63613;28.200;112.870;2023-01-09T12:47:43;17.80;79.60
41953;DHT22;63613;28.200;112.870;2023-01-09T12:53:20;17.80;79.90
41953;DHT22;63613;28.200;112.870;2023-01-09T12:56:28;17.80;80.00
41953;DHT22;63613;28.200;112.870;2023-01-09T12:59:00;17.80;80.10
41953;DHT22;63613;28.200;112.870;2023-01-09T13:01:48;17.80;80.10
41953;DHT22;63613;28.200;112.870;2023-01-09T13:04:23;17.80;80.20
41953;DHT22;63613;28.200;112.870;2023-01-09T13:07:01;17.80;80.20
41953;DHT22;63613;28.200;112.870;2023-01-09T13:12:34;17.70;80.20
41953;DHT22;63613;28.200;112.870;2023-01-09T13:18:28;17.70;80.50
41953;DHT22;63613;28.200;112.870;2023-01-09T13:20:58;17.60;80.60
41953;DHT22;63613;28.200;112.870;2023-01-09T13:27:03;17.70;80.80
41953;DHT22;63613;28.200;112.870;2023-01-09T13:29:34;17.70;80.80
41953;DHT22;63613;28.200;112.870;2023-01-09T13:35:21;17.60;81.20
41953;DHT22;63613;28.200;112.870;2023-01-09T13:37:52;17.60;81.00
41953;DHT22;63613;28.200;112.870;2023-01-09T13:40:26;17.60;81.10
41953;DHT22;63613;28.200;112.870;2023-01-09T13:43:06;17.60;81.30
41953;DHT22;63613;28.200;112.870;2023-01-09T13:45:37;17.60;81.20
41953;DHT22;63613;28.200;112.870;2023-01-09T13:50:47;17.50;81.60
41953;DHT22;63613;28.200;112.870;2023-01-09T13:56:04;17.50;81.60
41953;DHT22;63613;28.200;112.870;2023-01-09T13:58:57;17.50;81.70
41953;DHT22;63613;28.200;112.870;2023-01-09T14:07:15;17.50;81.60
41953;DHT22;63613;28.200;112.870;2023-01-09T14:09:57;17.50;81.70
41953;DHT22;63613;28.200;112.870;2023-01-09T14:12:26;17.50;81.70
41953;DHT22;63613;28.200;112.870;2023-01-09T14:14:57;17.50;81.70
41953;DHT22;63613;28.200;112.870;2023-01-09T14:17:33;17.50;81.80
41953;DHT22;63613;28.200;112.870;2023-01-09T14:20:05;17.50;81.80
41953;DHT22;63613;28.200;112.870;2023-01-09T14:22:36;17.50;81.80
41953;DHT22;63613;28.200;112.870;2023-01-09T14:25:16;17.50;81.70
41953;DHT22;63613;28.200;112.870;2023-01-09T14:30:36;17.50;81.70
41953;DHT22;63613;28.200;112.870;2023-01-09T14:33:29;17.40;81.70
41953;DHT22;63613;28.200;112.870;2023-01-09T14:36:19;17.40;81.70
41953;DHT22;63613;28.200;112.870;2023-01-09T14:39:02;17.40;81.70
41953;DHT22;63613;28.200;112.870;2023-01-09T14:41:55;17.50;81.50
41953;DHT22;63613;28.200;112.870;2023-01-09T14:50:05;17.40;81.60
41953;DHT22;63613;28.200;112.870;2023-01-09T14:55:48;17.40;81.40
41953;DHT22;63613;28.200;112.870;2023-01-09T14:58:27;17.40;81.40
41953;DHT22;63613;28.200;112.870;2023-01-09T15:01:14;17.40;81.60
41953;DHT22;63613;28.200;112.870;2023-01-09T15:03:51;17.40;81.60
41953;DHT22;63613;28.200;112.870;2023-01-09T15:06:21;17.40;81.30
41953;DHT22;63613;28.200;112.870;2023-01-09T15:09:06;17.40;81.30
41953;DHT22;63613;28.200;112.870;2023-01-09T15:11:33;17.40;81.40
41953;DHT22;63613;28.200;112.870;2023-01-09T15:14:02;17.40;81.30
41953;DHT22;63613;28.200;112.870;2023-01-09T15:16:31;17.40;81.30
41953;DHT22;63613;28.200;112.870;2023-01-09T15:19:05;17.40;81.30
41953;DHT22;63613;28.200;112.870;2023-01-09T15:21:32;17.40;81.30
41953;DHT22;63613;28.200;112.870;2023-01-09T15:24:22;17.40;81.30
41953;DHT22;63613;28.200;112.870;2023-01-09T15:26:56;17.40;81.40
41953;DHT22;63613;28.200;112.870;2023-01-09T15:29:28;17.30;81.30
41953;DHT22;63613;28.200;112.870;2023-01-09T15:32:04;17.40;81.30
41953;DHT22;63613;28.200;112.870;2023-01-09T15:34:33;17.40;81.30
41953;DHT22;63613;28.200;112.870;2023-01-09T15:37:01;17.40;81.20
41953;DHT22;63613;28.200;112.870;2023-01-09T15:39:31;17.30;81.20
41953;DHT22;63613;28.200;112.870;2023-01-09T15:42:03;17.30;81.50
41953;DHT22;63613;28.200;112.870;2023-01-09T15:44:52;17.30;81.60
41953;DHT22;63613;28.200;112.870;2023-01-09T15:47:24;17.30;81.60
41953;DHT22;63613;28.200;112.870;2023-01-09T15:49:54;17.30;81.60
41953;DHT22;63613;28.200;112.870;2023-01-09T15:52:28;17.30;81.70
41953;DHT22;63613;28.200;112.870;2023-01-09T15:54:55;17.30;81.70
41953;DHT22;63613;28.200;112.870;2023-01-09T15:57:35;17.30;81.60
41953;DHT22;63613;28.200;112.870;2023-01-09T16:00:33;17.30;81.60
41953;DHT22;63613;28.200;112.870;2023-01-09T16:03:01;17.20;81.80
41953;DHT22;63613;28.200;112.870;2023-01-09T16:05:45;17.10;81.80
41953;DHT22;63613;28.200;112.870;2023-01-09T16:08:20;17.20;81.90
41953;DHT22;63613;28.200;112.870;2023-01-09T16:16:39;17.20;82.10
41953;DHT22;63613;28.200;112.870;2023-01-09T16:19:28;17.20;82.20
41953;DHT22;63613;28.200;112.870;2023-01-09T16:22:01;17.20;82.20
41953;DHT22;63613;28.200;112.870;2023-01-09T16:24:40;17.20;82.30
41953;DHT22;63613;28.200;112.870;2023-01-09T16:27:30;17.20;82.20
41953;DHT22;63613;28.200;112.870;2023-01-09T16:30:18;17.30;82.10
41953;DHT22;63613;28.200;112.870;2023-01-09T16:32:48;17.20;82.10
41953;DHT22;63613;28.200;112.870;2023-01-09T16:35:21;17.20;82.20
41953;DHT22;63613;28.200;112.870;2023-01-09T16:37:51;17.10;82.20
41953;DHT22;63613;28.200;112.870;2023-01-09T16:40:26;17.20;82.30
41953;DHT22;63613;28.200;112.870;2023-01-09T16:42:57;17.20;82.30
41953;DHT22;63613;28.200;112.870;2023-01-09T16:45:41;17.10;82.50
41953;DHT22;63613;28.200;112.870;2023-01-09T16:48:20;17.10;82.40
41953;DHT22;63613;28.200;112.870;2023-01-09T16:50:48;17.10;82.40
41953;DHT22;63613;28.200;112.870;2023-01-09T16:53:20;17.10;82.30
41953;DHT22;63613;28.200;112.870;2023-01-09T16:55:56;17.10;82.40
41953;DHT22;63613;28.200;112.870;2023-01-09T16:58:28;17.20;82.30
41953;DHT22;63613;28.200;112.870;2023-01-09T17:00:57;17.10;82.40
41953;DHT22;63613;28.200;112.870;2023-01-09T17:03:24;17.10;82.30
41953;DHT22;63613;28.200;112.870;2023-01-09T17:05:54;17.10;82.10
41953;DHT22;63613;28.200;112.870;2023-01-09T17:08:24;17.10;82.20
41953;DHT22;63613;28.200;112.870;2023-01-09T17:10:54;17.10;82.20
41953;DHT22;63613;28.200;112.870;2023-01-09T17:13:21;17.10;82.30
41953;DHT22;63613;28.200;112.870;2023-01-09T17:15:48;17.10;82.20
41953;DHT22;63613;28.200;112.870;2023-01-09T17:18:21;17.10;82.30
41953;DHT22;63613;28.200;112.870;2023-01-09T17:20:51;17.10;82.20
41953;DHT22;63613;28.200;112.870;2023-01-09T17:23:19;17.10;82.20
41953;DHT22;63613;28.200;112.870;2023-01-09T17:25:54;17.10;82.10
41953;DHT22;63613;28.200;112.870;2023-01-09T17:28:45;17.10;82.10
41953;DHT22;63613;28.200;112.870;2023-01-09T17:31:13;17.10;82.00
41953;DHT22;63613;28.200;112.870;2023-01-09T17:33:45;17.10;82.00
41953;DHT22;63613;28.200;112.870;2023-01-09T17:36:29;17.10;82.00
41953;DHT22;63613;28.200;112.870;2023-01-09T17:38:58;17.10;82.00
41953;DHT22;63613;28.200;112.870;2023-01-09T17:41:29;17.00;82.00
41953;DHT22;63613;28.200;112.870;2023-01-09T17:43:58;17.10;82.00
41953;DHT22;63613;28.200;112.870;2023-01-09T17:46:33;17.10;81.90
41953;DHT22;63613;28.200;112.870;2023-01-09T17:49:01;17.10;81.80
41953;DHT22;63613;28.200;112.870;2023-01-09T17:51:28;17.10;81.90
41953;DHT22;63613;28.200;112.870;2023-01-09T17:53:55;17.10;81.90
41953;DHT22;63613;28.200;112.870;2023-01-09T17:56:25;17.00;81.80
41953;DHT22;63613;28.200;112.870;2023-01-09T17:58:55;17.10;81.80
41953;DHT22;63613;28.200;112.870;2023-01-09T18:01:22;17.00;81.70
41953;DHT22;63613;28.200;112.870;2023-01-09T18:04:10;17.00;81.80
41953;DHT22;63613;28.200;112.870;2023-01-09T18:06:40;17.00;81.90
41953;DHT22;63613;28.200;112.870;2023-01-09T18:09:08;17.00;82.00
41953;DHT22;63613;28.200;112.870;2023-01-09T18:11:46;17.00;81.90
41953;DHT22;63613;28.200;112.870;2023-01-09T18:14:13;17.00;81.70
41953;DHT22;63613;28.200;112.870;2023-01-09T18:16:40;17.00;81.80